sensor_id;sensor_type;location;lat;lon;timestamp;P1;durP1;ratioP1;P2;durP2;ratioP2
34836;SDS011;21053;50.848;4.652;2022-12-18T00:01:36;125.28;;;38.97;;
34836;SDS011;21053;50.848;4.652;2022-12-18T00:04:15;121.63;;;39.10;;
34836;SDS011;21053;50.848;4.652;2022-12-18T00:09:23;123.10;;;38.63;;
34836;SDS011;21053;50.848;4.652;2022-12-18T00:11:49;111.97;;;36.58;;
34836;SDS011;21053;50.848;4.652;2022-12-18T00:14:16;112.35;;;36.45;;
34836;SDS011;21053;50.848;4.652;2022-12-18T00:16:45;100.95;;;34.88;;
34836;SDS011;21053;50.848;4.652;2022-12-18T00:19:14;102.70;;;33.83;;
34836;SDS011;21053;50.848;4.652;2022-12-18T00:24:10;88.68;;;31.20;;
34836;SDS011;21053;50.848;4.652;2022-12-18T00:26:38;83.28;;;30.92;;
34836;SDS011;21053;50.848;4.652;2022-12-18T00:29:11;102.78;;;35.78;;
34836;SDS011;21053;50.848;4.652;2022-12-18T00:31:43;101.20;;;33.08;;
34836;SDS011;21053;50.848;4.652;2022-12-18T00:34:13;109.28;;;36.17;;
34836;SDS011;21053;50.848;4.652;2022-12-18T00:36:40;106.53;;;37.03;;
34836;SDS011;21053;50.848;4.652;2022-12-18T00:39:07;100.70;;;35.40;;
34836;SDS011;21053;50.848;4.652;2022-12-18T00:41:36;109.55;;;34.85;;
34836;SDS011;21053;50.848;4.652;2022-12-18T00:44:21;111.97;;;36.22;;
34836;SDS011;21053;50.848;4.652;2022-12-18T00:46:47;101.15;;;34.95;;
34836;SDS011;21053;50.848;4.652;2022-12-18T00:49:15;97.15;;;31.85;;
34836;SDS011;21053;50.848;4.652;2022-12-18T00:51:43;92.90;;;30.65;;
34836;SDS011;21053;50.848;4.652;2022-12-18T00:54:10;95.88;;;29.85;;
34836;SDS011;21053;50.848;4.652;2022-12-18T00:56:37;94.00;;;31.95;;
34836;SDS011;21053;50.848;4.652;2022-12-18T00:59:05;89.30;;;30.83;;
34836;SDS011;21053;50.848;4.652;2022-12-18T01:01:31;93.90;;;32.55;;
34836;SDS011;21053;50.848;4.652;2022-12-18T01:03:59;96.60;;;32.00;;
34836;SDS011;21053;50.848;4.652;2022-12-18T01:06:28;95.72;;;31.58;;
34836;SDS011;21053;50.848;4.652;2022-12-18T01:08:55;88.70;;;30.23;;
34836;SDS011;21053;50.848;4.652;2022-12-18T01:11:22;98.13;;;33.03;;
34836;SDS011;21053;50.848;4.652;2022-12-18T01:13:51;92.00;;;31.55;;
34836;SDS011;21053;50.848;4.652;2022-12-18T01:16:19;89.30;;;31.45;;
34836;SDS011;21053;50.848;4.652;2022-12-18T01:21:16;90.43;;;31.85;;
34836;SDS011;21053;50.848;4.652;2022-12-18T01:23:46;87.65;;;30.15;;
34836;SDS011;21053;50.848;4.652;2022-12-18T01:26:16;85.45;;;30.15;;
34836;SDS011;21053;50.848;4.652;2022-12-18T01:28:43;87.32;;;31.08;;
34836;SDS011;21053;50.848;4.652;2022-12-18T01:31:17;93.95;;;31.05;;
34836;SDS011;21053;50.848;4.652;2022-12-18T01:33:49;89.07;;;29.65;;
34836;SDS011;21053;50.848;4.652;2022-12-18T01:36:18;94.80;;;31.15;;
34836;SDS011;21053;50.848;4.652;2022-12-18T01:38:47;86.50;;;28.73;;
34836;SDS011;21053;50.848;4.652;2022-12-18T01:41:18;88.95;;;29.85;;
34836;SDS011;21053;50.848;4.652;2022-12-18T01:46:21;88.88;;;29.50;;
34836;SDS011;21053;50.848;4.652;2022-12-18T01:48:53;83.45;;;28.73;;
34836;SDS011;21053;50.848;4.652;2022-12-18T01:51:23;89.88;;;28.05;;
34836;SDS011;21053;50.848;4.652;2022-12-18T01:53:49;86.32;;;29.02;;
34836;SDS011;21053;50.848;4.652;2022-12-18T01:56:16;86.47;;;30.83;;
34836;SDS011;21053;50.848;4.652;2022-12-18T01:58:52;83.28;;;29.15;;
34836;SDS011;21053;50.848;4.652;2022-12-18T02:01:29;86.13;;;29.98;;
34836;SDS011;21053;50.848;4.652;2022-12-18T02:03:56;84.68;;;28.92;;
34836;SDS011;21053;50.848;4.652;2022-12-18T02:06:40;94.22;;;31.08;;
34836;SDS011;21053;50.848;4.652;2022-12-18T02:09:11;86.63;;;29.08;;
34836;SDS011;21053;50.848;4.652;2022-12-18T02:28:37;95.38;;;29.88;;
34836;SDS011;21053;50.848;4.652;2022-12-18T02:31:15;91.03;;;30.35;;
34836;SDS011;21053;50.848;4.652;2022-12-18T02:36:14;91.40;;;29.58;;
34836;SDS011;21053;50.848;4.652;2022-12-18T02:38:42;94.60;;;29.92;;
34836;SDS011;21053;50.848;4.652;2022-12-18T02:41:10;80.82;;;28.65;;
34836;SDS011;21053;50.848;4.652;2022-12-18T02:43:39;89.78;;;28.75;;
34836;SDS011;21053;50.848;4.652;2022-12-18T02:49:00;80.43;;;27.40;;
34836;SDS011;21053;50.848;4.652;2022-12-18T02:51:43;80.10;;;27.75;;
34836;SDS011;21053;50.848;4.652;2022-12-18T02:54:21;86.38;;;28.10;;
34836;SDS011;21053;50.848;4.652;2022-12-18T03:00:12;91.93;;;27.90;;
34836;SDS011;21053;50.848;4.652;2022-12-18T03:05:38;84.38;;;28.63;;
34836;SDS011;21053;50.848;4.652;2022-12-18T03:11:26;80.47;;;28.20;;
34836;SDS011;21053;50.848;4.652;2022-12-18T03:17:35;85.05;;;28.20;;
34836;SDS011;21053;50.848;4.652;2022-12-18T03:20:08;82.95;;;29.00;;
34836;SDS011;21053;50.848;4.652;2022-12-18T03:22:44;74.95;;;26.70;;
34836;SDS011;21053;50.848;4.652;2022-12-18T03:25:15;78.75;;;27.65;;
34836;SDS011;21053;50.848;4.652;2022-12-18T03:27:47;85.32;;;28.02;;
34836;SDS011;21053;50.848;4.652;2022-12-18T03:30:17;86.22;;;28.92;;
34836;SDS011;21053;50.848;4.652;2022-12-18T03:33:46;93.82;;;28.40;;
34836;SDS011;21053;50.848;4.652;2022-12-18T03:35:45;84.45;;;27.60;;
34836;SDS011;21053;50.848;4.652;2022-12-18T03:38:12;76.53;;;26.88;;
34836;SDS011;21053;50.848;4.652;2022-12-18T03:43:26;78.53;;;27.30;;
34836;SDS011;21053;50.848;4.652;2022-12-18T03:46:15;85.13;;;26.20;;
34836;SDS011;21053;50.848;4.652;2022-12-18T03:48:52;88.05;;;28.02;;
34836;SDS011;21053;50.848;4.652;2022-12-18T03:54:05;82.22;;;26.90;;
34836;SDS011;21053;50.848;4.652;2022-12-18T03:56:44;87.10;;;25.90;;
34836;SDS011;21053;50.848;4.652;2022-12-18T03:59:19;83.97;;;27.00;;
34836;SDS011;21053;50.848;4.652;2022-12-18T04:01:49;74.45;;;25.77;;
34836;SDS011;21053;50.848;4.652;2022-12-18T04:04:20;81.70;;;26.60;;
34836;SDS011;21053;50.848;4.652;2022-12-18T04:06:48;81.43;;;27.92;;
34836;SDS011;21053;50.848;4.652;2022-12-18T04:09:17;81.90;;;28.63;;
34836;SDS011;21053;50.848;4.652;2022-12-18T04:11:44;79.90;;;25.90;;
34836;SDS011;21053;50.848;4.652;2022-12-18T04:14:12;86.90;;;27.05;;
34836;SDS011;21053;50.848;4.652;2022-12-18T04:16:40;77.65;;;25.88;;
34836;SDS011;21053;50.848;4.652;2022-12-18T04:19:06;76.18;;;25.50;;
34836;SDS011;21053;50.848;4.652;2022-12-18T04:21:38;75.18;;;25.83;;
34836;SDS011;21053;50.848;4.652;2022-12-18T04:25:12;76.13;;;24.15;;
34836;SDS011;21053;50.848;4.652;2022-12-18T04:27:40;71.07;;;25.23;;
34836;SDS011;21053;50.848;4.652;2022-12-18T04:30:06;70.70;;;25.23;;
34836;SDS011;21053;50.848;4.652;2022-12-18T04:32:33;79.85;;;25.27;;
34836;SDS011;21053;50.848;4.652;2022-12-18T04:35:00;71.75;;;24.08;;
34836;SDS011;21053;50.848;4.652;2022-12-18T04:37:27;76.03;;;25.45;;
34836;SDS011;21053;50.848;4.652;2022-12-18T04:39:54;71.60;;;23.90;;
34836;SDS011;21053;50.848;4.652;2022-12-18T04:42:20;78.22;;;24.77;;
34836;SDS011;21053;50.848;4.652;2022-12-18T04:44:47;74.63;;;23.90;;
34836;SDS011;21053;50.848;4.652;2022-12-18T04:49:43;73.00;;;24.20;;
34836;SDS011;21053;50.848;4.652;2022-12-18T04:54:41;74.63;;;23.92;;
34836;SDS011;21053;50.848;4.652;2022-12-18T04:57:09;69.63;;;23.67;;
34836;SDS011;21053;50.848;4.652;2022-12-18T04:59:37;68.35;;;23.80;;
34836;SDS011;21053;50.848;4.652;2022-12-18T05:04:35;65.90;;;22.55;;
34836;SDS011;21053;50.848;4.652;2022-12-18T05:09:30;65.70;;;22.40;;
34836;SDS011;21053;50.848;4.652;2022-12-18T05:14:27;75.00;;;24.02;;
34836;SDS011;21053;50.848;4.652;2022-12-18T05:16:54;77.90;;;24.45;;
34836;SDS011;21053;50.848;4.652;2022-12-18T05:19:22;75.32;;;23.77;;
34836;SDS011;21053;50.848;4.652;2022-12-18T05:21:51;76.38;;;22.88;;
34836;SDS011;21053;50.848;4.652;2022-12-18T05:24:19;71.07;;;22.52;;
34836;SDS011;21053;50.848;4.652;2022-12-18T05:26:48;64.60;;;22.65;;
34836;SDS011;21053;50.848;4.652;2022-12-18T05:29:16;67.65;;;23.80;;
34836;SDS011;21053;50.848;4.652;2022-12-18T05:31:44;69.80;;;22.15;;
34836;SDS011;21053;50.848;4.652;2022-12-18T05:34:11;69.72;;;23.98;;
34836;SDS011;21053;50.848;4.652;2022-12-18T05:36:40;74.82;;;23.67;;
34836;SDS011;21053;50.848;4.652;2022-12-18T05:39:09;69.22;;;24.23;;
34836;SDS011;21053;50.848;4.652;2022-12-18T05:41:36;60.58;;;23.23;;
34836;SDS011;21053;50.848;4.652;2022-12-18T05:44:08;65.72;;;22.08;;
34836;SDS011;21053;50.848;4.652;2022-12-18T05:46:34;66.93;;;23.02;;
34836;SDS011;21053;50.848;4.652;2022-12-18T05:49:00;68.38;;;23.38;;
34836;SDS011;21053;50.848;4.652;2022-12-18T05:51:28;67.60;;;23.70;;
34836;SDS011;21053;50.848;4.652;2022-12-18T05:54:00;63.20;;;22.55;;
34836;SDS011;21053;50.848;4.652;2022-12-18T05:56:26;63.90;;;21.92;;
34836;SDS011;21053;50.848;4.652;2022-12-18T06:01:23;64.10;;;22.17;;
34836;SDS011;21053;50.848;4.652;2022-12-18T06:03:54;61.30;;;22.00;;
34836;SDS011;21053;50.848;4.652;2022-12-18T06:06:22;62.38;;;21.17;;
34836;SDS011;21053;50.848;4.652;2022-12-18T06:09:41;61.00;;;20.88;;
34836;SDS011;21053;50.848;4.652;2022-12-18T06:12:08;57.90;;;20.25;;
34836;SDS011;21053;50.848;4.652;2022-12-18T06:14:34;59.88;;;21.27;;
34836;SDS011;21053;50.848;4.652;2022-12-18T06:17:03;65.40;;;21.63;;
34836;SDS011;21053;50.848;4.652;2022-12-18T06:19:28;58.45;;;20.83;;
34836;SDS011;21053;50.848;4.652;2022-12-18T06:21:57;64.18;;;21.27;;
34836;SDS011;21053;50.848;4.652;2022-12-18T06:26:55;63.13;;;22.88;;
34836;SDS011;21053;50.848;4.652;2022-12-18T06:29:27;56.72;;;20.63;;
34836;SDS011;21053;50.848;4.652;2022-12-18T06:31:56;70.78;;;22.85;;
34836;SDS011;21053;50.848;4.652;2022-12-18T06:36:50;71.93;;;22.92;;
34836;SDS011;21053;50.848;4.652;2022-12-18T06:40:54;70.20;;;22.73;;
34836;SDS011;21053;50.848;4.652;2022-12-18T06:43:21;70.20;;;22.52;;
34836;SDS011;21053;50.848;4.652;2022-12-18T06:45:49;63.17;;;22.67;;
34836;SDS011;21053;50.848;4.652;2022-12-18T06:48:20;63.03;;;21.55;;
34836;SDS011;21053;50.848;4.652;2022-12-18T06:50:47;74.10;;;23.45;;
34836;SDS011;21053;50.848;4.652;2022-12-18T06:53:13;65.72;;;22.73;;
34836;SDS011;21053;50.848;4.652;2022-12-18T06:55:39;72.28;;;23.05;;
34836;SDS011;21053;50.848;4.652;2022-12-18T06:58:04;68.03;;;22.55;;
34836;SDS011;21053;50.848;4.652;2022-12-18T07:00:31;64.35;;;20.58;;
34836;SDS011;21053;50.848;4.652;2022-12-18T07:03:00;62.53;;;22.48;;
34836;SDS011;21053;50.848;4.652;2022-12-18T07:05:25;62.28;;;22.08;;
34836;SDS011;21053;50.848;4.652;2022-12-18T07:07:52;65.90;;;23.23;;
34836;SDS011;21053;50.848;4.652;2022-12-18T07:10:19;65.75;;;22.70;;
34836;SDS011;21053;50.848;4.652;2022-12-18T07:12:45;66.82;;;22.50;;
34836;SDS011;21053;50.848;4.652;2022-12-18T07:15:12;65.35;;;22.08;;
34836;SDS011;21053;50.848;4.652;2022-12-18T07:17:38;65.53;;;22.10;;
34836;SDS011;21053;50.848;4.652;2022-12-18T07:20:06;67.32;;;22.75;;
34836;SDS011;21053;50.848;4.652;2022-12-18T07:22:34;67.90;;;22.10;;
34836;SDS011;21053;50.848;4.652;2022-12-18T07:24:59;59.38;;;21.88;;
34836;SDS011;21053;50.848;4.652;2022-12-18T07:27:27;65.40;;;21.35;;
34836;SDS011;21053;50.848;4.652;2022-12-18T07:29:54;62.00;;;21.63;;
34836;SDS011;21053;50.848;4.652;2022-12-18T07:32:23;65.40;;;22.45;;
34836;SDS011;21053;50.848;4.652;2022-12-18T07:37:20;58.25;;;21.75;;
34836;SDS011;21053;50.848;4.652;2022-12-18T07:39:48;73.35;;;22.63;;
34836;SDS011;21053;50.848;4.652;2022-12-18T07:42:16;61.30;;;21.55;;
34836;SDS011;21053;50.848;4.652;2022-12-18T07:45:03;62.35;;;20.80;;
34836;SDS011;21053;50.848;4.652;2022-12-18T07:47:33;69.30;;;21.90;;
34836;SDS011;21053;50.848;4.652;2022-12-18T07:50:02;65.47;;;21.77;;
34836;SDS011;21053;50.848;4.652;2022-12-18T07:52:30;68.40;;;21.88;;
34836;SDS011;21053;50.848;4.652;2022-12-18T07:54:57;63.30;;;20.65;;
34836;SDS011;21053;50.848;4.652;2022-12-18T07:57:25;63.15;;;21.65;;
34836;SDS011;21053;50.848;4.652;2022-12-18T07:59:51;60.03;;;21.70;;
34836;SDS011;21053;50.848;4.652;2022-12-18T08:02:18;57.83;;;21.17;;
34836;SDS011;21053;50.848;4.652;2022-12-18T08:07:13;63.38;;;21.98;;
34836;SDS011;21053;50.848;4.652;2022-12-18T08:09:40;63.95;;;21.40;;
34836;SDS011;21053;50.848;4.652;2022-12-18T08:12:05;65.53;;;23.23;;
34836;SDS011;21053;50.848;4.652;2022-12-18T08:14:32;76.55;;;24.98;;
34836;SDS011;21053;50.848;4.652;2022-12-18T08:19:27;61.35;;;22.63;;
34836;SDS011;21053;50.848;4.652;2022-12-18T08:21:53;67.03;;;23.45;;
34836;SDS011;21053;50.848;4.652;2022-12-18T08:26:51;61.25;;;22.00;;
34836;SDS011;21053;50.848;4.652;2022-12-18T08:29:17;66.03;;;21.52;;
34836;SDS011;21053;50.848;4.652;2022-12-18T08:31:45;72.25;;;27.67;;
34836;SDS011;21053;50.848;4.652;2022-12-18T08:34:11;71.05;;;25.52;;
34836;SDS011;21053;50.848;4.652;2022-12-18T08:36:38;68.53;;;25.38;;
34836;SDS011;21053;50.848;4.652;2022-12-18T08:39:04;69.90;;;23.00;;
34836;SDS011;21053;50.848;4.652;2022-12-18T08:41:30;68.30;;;23.70;;
34836;SDS011;21053;50.848;4.652;2022-12-18T08:43:58;62.47;;;24.10;;
34836;SDS011;21053;50.848;4.652;2022-12-18T08:46:53;72.47;;;25.40;;
34836;SDS011;21053;50.848;4.652;2022-12-18T08:49:20;61.97;;;22.63;;
34836;SDS011;21053;50.848;4.652;2022-12-18T08:51:46;61.95;;;22.40;;
34836;SDS011;21053;50.848;4.652;2022-12-18T08:54:12;60.92;;;23.05;;
34836;SDS011;21053;50.848;4.652;2022-12-18T08:56:39;65.80;;;23.13;;
34836;SDS011;21053;50.848;4.652;2022-12-18T08:59:08;67.43;;;24.50;;
34836;SDS011;21053;50.848;4.652;2022-12-18T09:01:35;62.75;;;23.20;;
34836;SDS011;21053;50.848;4.652;2022-12-18T09:04:01;69.50;;;24.27;;
34836;SDS011;21053;50.848;4.652;2022-12-18T09:09:06;63.15;;;23.00;;
34836;SDS011;21053;50.848;4.652;2022-12-18T09:11:33;64.40;;;23.67;;
34836;SDS011;21053;50.848;4.652;2022-12-18T09:13:59;64.85;;;23.42;;
34836;SDS011;21053;50.848;4.652;2022-12-18T09:16:26;58.53;;;22.85;;
34836;SDS011;21053;50.848;4.652;2022-12-18T09:18:54;60.60;;;21.95;;
34836;SDS011;21053;50.848;4.652;2022-12-18T09:21:25;63.30;;;22.83;;
34836;SDS011;21053;50.848;4.652;2022-12-18T09:23:54;75.45;;;23.52;;
34836;SDS011;21053;50.848;4.652;2022-12-18T09:26:23;59.30;;;22.15;;
34836;SDS011;21053;50.848;4.652;2022-12-18T09:28:52;64.50;;;26.20;;
34836;SDS011;21053;50.848;4.652;2022-12-18T09:31:21;76.72;;;30.30;;
34836;SDS011;21053;50.848;4.652;2022-12-18T09:33:47;63.65;;;23.65;;
34836;SDS011;21053;50.848;4.652;2022-12-18T09:36:14;59.03;;;23.73;;
34836;SDS011;21053;50.848;4.652;2022-12-18T09:38:41;58.97;;;23.10;;
34836;SDS011;21053;50.848;4.652;2022-12-18T09:44:15;88.30;;;33.42;;
34836;SDS011;21053;50.848;4.652;2022-12-18T09:49:52;71.93;;;26.50;;
34836;SDS011;21053;50.848;4.652;2022-12-18T09:52:26;93.82;;;30.15;;
34836;SDS011;21053;50.848;4.652;2022-12-18T09:58:04;72.75;;;27.15;;
34836;SDS011;21053;50.848;4.652;2022-12-18T10:00:39;72.82;;;27.77;;
34836;SDS011;21053;50.848;4.652;2022-12-18T10:03:10;71.90;;;27.42;;
34836;SDS011;21053;50.848;4.652;2022-12-18T10:05:40;75.07;;;26.80;;
34836;SDS011;21053;50.848;4.652;2022-12-18T10:08:17;69.15;;;26.85;;
34836;SDS011;21053;50.848;4.652;2022-12-18T10:10:59;65.32;;;27.70;;
34836;SDS011;21053;50.848;4.652;2022-12-18T10:13:39;67.07;;;25.95;;
34836;SDS011;21053;50.848;4.652;2022-12-18T10:28:25;53.88;;;23.02;;
34836;SDS011;21053;50.848;4.652;2022-12-18T10:30:52;52.58;;;21.73;;
34836;SDS011;21053;50.848;4.652;2022-12-18T10:33:21;47.25;;;20.15;;
34836;SDS011;21053;50.848;4.652;2022-12-18T10:35:50;46.13;;;18.92;;
34836;SDS011;21053;50.848;4.652;2022-12-18T10:40:50;49.03;;;20.80;;
34836;SDS011;21053;50.848;4.652;2022-12-18T10:46:02;51.88;;;21.10;;
34836;SDS011;21053;50.848;4.652;2022-12-18T10:51:03;47.67;;;19.80;;
34836;SDS011;21053;50.848;4.652;2022-12-18T10:53:30;45.45;;;20.13;;
34836;SDS011;21053;50.848;4.652;2022-12-18T10:55:58;45.28;;;19.95;;
34836;SDS011;21053;50.848;4.652;2022-12-18T11:11:51;37.70;;;15.60;;
34836;SDS011;21053;50.848;4.652;2022-12-18T11:19:57;39.45;;;15.27;;
34836;SDS011;21053;50.848;4.652;2022-12-18T11:33:42;39.00;;;14.88;;
34836;SDS011;21053;50.848;4.652;2022-12-18T11:36:17;30.50;;;13.43;;
34836;SDS011;21053;50.848;4.652;2022-12-18T11:38:43;35.33;;;13.85;;
34836;SDS011;21053;50.848;4.652;2022-12-18T11:47:25;26.90;;;12.88;;
34836;SDS011;21053;50.848;4.652;2022-12-18T11:52:51;32.78;;;14.32;;
34836;SDS011;21053;50.848;4.652;2022-12-18T11:57:58;32.40;;;16.77;;
34836;SDS011;21053;50.848;4.652;2022-12-18T12:00:43;39.38;;;16.98;;
34836;SDS011;21053;50.848;4.652;2022-12-18T12:03:35;35.55;;;17.08;;
34836;SDS011;21053;50.848;4.652;2022-12-18T12:09:21;33.10;;;15.13;;
34836;SDS011;21053;50.848;4.652;2022-12-18T12:14:49;34.65;;;15.48;;
34836;SDS011;21053;50.848;4.652;2022-12-18T12:21:50;48.13;;;16.70;;
34836;SDS011;21053;50.848;4.652;2022-12-18T12:33:13;37.67;;;15.70;;
34836;SDS011;21053;50.848;4.652;2022-12-18T12:39:08;35.45;;;16.15;;
34836;SDS011;21053;50.848;4.652;2022-12-18T12:41:44;33.17;;;15.75;;
34836;SDS011;21053;50.848;4.652;2022-12-18T12:44:42;34.72;;;16.85;;
34836;SDS011;21053;50.848;4.652;2022-12-18T12:50:11;34.70;;;16.40;;
34836;SDS011;21053;50.848;4.652;2022-12-18T12:55:14;33.83;;;16.08;;
34836;SDS011;21053;50.848;4.652;2022-12-18T12:58:06;38.95;;;16.70;;
34836;SDS011;21053;50.848;4.652;2022-12-18T13:00:59;35.53;;;16.27;;
34836;SDS011;21053;50.848;4.652;2022-12-18T13:03:42;38.03;;;17.25;;
34836;SDS011;21053;50.848;4.652;2022-12-18T13:06:16;46.67;;;17.08;;
34836;SDS011;21053;50.848;4.652;2022-12-18T13:09:10;33.42;;;16.52;;
34836;SDS011;21053;50.848;4.652;2022-12-18T13:11:45;43.28;;;18.25;;
34836;SDS011;21053;50.848;4.652;2022-12-18T13:14:34;73.47;;;28.00;;
34836;SDS011;21053;50.848;4.652;2022-12-18T13:19:51;61.75;;;23.85;;
34836;SDS011;21053;50.848;4.652;2022-12-18T13:22:48;44.60;;;20.08;;
34836;SDS011;21053;50.848;4.652;2022-12-18T13:28:08;132.80;;;44.30;;
34836;SDS011;21053;50.848;4.652;2022-12-18T13:40:55;48.45;;;21.88;;
34836;SDS011;21053;50.848;4.652;2022-12-18T13:43:42;52.92;;;24.70;;
34836;SDS011;21053;50.848;4.652;2022-12-18T13:46:19;59.25;;;25.17;;
34836;SDS011;21053;50.848;4.652;2022-12-18T13:51:29;51.33;;;20.38;;
34836;SDS011;21053;50.848;4.652;2022-12-18T13:56:34;50.17;;;21.05;;
34836;SDS011;21053;50.848;4.652;2022-12-18T13:59:17;47.17;;;20.88;;
34836;SDS011;21053;50.848;4.652;2022-12-18T14:01:47;54.00;;;23.75;;
34836;SDS011;21053;50.848;4.652;2022-12-18T14:04:27;51.50;;;21.02;;
34836;SDS011;21053;50.848;4.652;2022-12-18T14:12:32;54.17;;;22.10;;
34836;SDS011;21053;50.848;4.652;2022-12-18T14:17:58;50.70;;;21.23;;
34836;SDS011;21053;50.848;4.652;2022-12-18T14:20:45;53.60;;;20.48;;
34836;SDS011;21053;50.848;4.652;2022-12-18T14:26:01;53.55;;;22.40;;
34836;SDS011;21053;50.848;4.652;2022-12-18T14:28:29;62.22;;;25.30;;
34836;SDS011;21053;50.848;4.652;2022-12-18T14:30:58;68.80;;;27.02;;
34836;SDS011;21053;50.848;4.652;2022-12-18T14:33:31;87.13;;;34.75;;
34836;SDS011;21053;50.848;4.652;2022-12-18T14:35:58;73.28;;;29.92;;
34836;SDS011;21053;50.848;4.652;2022-12-18T14:40:40;127.15;;;45.92;;
34836;SDS011;21053;50.848;4.652;2022-12-18T14:43:13;87.30;;;33.97;;
34836;SDS011;21053;50.848;4.652;2022-12-18T14:45:41;116.03;;;42.20;;
34836;SDS011;21053;50.848;4.652;2022-12-18T14:53:23;62.58;;;26.42;;
34836;SDS011;21053;50.848;4.652;2022-12-18T14:59:03;53.17;;;21.90;;
34836;SDS011;21053;50.848;4.652;2022-12-18T15:04:44;99.70;;;33.50;;
34836;SDS011;21053;50.848;4.652;2022-12-18T15:07:14;89.20;;;31.95;;
34836;SDS011;21053;50.848;4.652;2022-12-18T15:10:04;82.78;;;27.73;;
34836;SDS011;21053;50.848;4.652;2022-12-18T15:12:36;125.65;;;38.53;;
34836;SDS011;21053;50.848;4.652;2022-12-18T15:26:19;67.32;;;25.33;;
34836;SDS011;21053;50.848;4.652;2022-12-18T15:28:52;58.00;;;24.90;;
34836;SDS011;21053;50.848;4.652;2022-12-18T15:31:33;51.63;;;21.38;;
34836;SDS011;21053;50.848;4.652;2022-12-18T15:36:46;52.40;;;22.58;;
34836;SDS011;21053;50.848;4.652;2022-12-18T15:39:12;52.92;;;21.02;;
34836;SDS011;21053;50.848;4.652;2022-12-18T15:41:41;58.80;;;22.60;;
34836;SDS011;21053;50.848;4.652;2022-12-18T15:44:30;55.15;;;22.27;;
34836;SDS011;21053;50.848;4.652;2022-12-18T15:46:58;54.08;;;21.75;;
34836;SDS011;21053;50.848;4.652;2022-12-18T15:49:24;53.53;;;21.48;;
34836;SDS011;21053;50.848;4.652;2022-12-18T15:51:51;47.22;;;21.20;;
34836;SDS011;21053;50.848;4.652;2022-12-18T15:54:22;61.15;;;22.85;;
34836;SDS011;21053;50.848;4.652;2022-12-18T15:59:50;51.80;;;21.30;;
34836;SDS011;21053;50.848;4.652;2022-12-18T16:04:54;57.95;;;21.70;;
34836;SDS011;21053;50.848;4.652;2022-12-18T16:07:21;52.92;;;21.42;;
34836;SDS011;21053;50.848;4.652;2022-12-18T16:09:50;51.50;;;21.05;;
34836;SDS011;21053;50.848;4.652;2022-12-18T16:14:52;54.60;;;20.95;;
34836;SDS011;21053;50.848;4.652;2022-12-18T16:17:21;57.65;;;21.27;;
34836;SDS011;21053;50.848;4.652;2022-12-18T16:19:49;53.88;;;21.20;;
34836;SDS011;21053;50.848;4.652;2022-12-18T16:22:17;54.83;;;20.73;;
34836;SDS011;21053;50.848;4.652;2022-12-18T16:24:47;49.70;;;20.85;;
34836;SDS011;21053;50.848;4.652;2022-12-18T16:27:17;56.28;;;21.48;;
34836;SDS011;21053;50.848;4.652;2022-12-18T16:29:49;58.55;;;22.73;;
34836;SDS011;21053;50.848;4.652;2022-12-18T16:32:19;59.40;;;22.52;;
34836;SDS011;21053;50.848;4.652;2022-12-18T16:34:48;55.60;;;21.85;;
34836;SDS011;21053;50.848;4.652;2022-12-18T16:37:14;52.58;;;20.95;;
34836;SDS011;21053;50.848;4.652;2022-12-18T16:39:43;61.92;;;22.38;;
34836;SDS011;21053;50.848;4.652;2022-12-18T16:42:12;52.17;;;21.35;;
34836;SDS011;21053;50.848;4.652;2022-12-18T16:44:41;55.67;;;21.38;;
34836;SDS011;21053;50.848;4.652;2022-12-18T16:47:09;53.22;;;21.70;;
34836;SDS011;21053;50.848;4.652;2022-12-18T16:49:38;60.05;;;21.83;;
34836;SDS011;21053;50.848;4.652;2022-12-18T16:52:04;57.22;;;20.67;;
34836;SDS011;21053;50.848;4.652;2022-12-18T16:54:37;52.88;;;20.95;;
34836;SDS011;21053;50.848;4.652;2022-12-18T16:59:37;52.75;;;20.98;;
34836;SDS011;21053;50.848;4.652;2022-12-18T17:07:09;52.42;;;20.52;;
34836;SDS011;21053;50.848;4.652;2022-12-18T17:09:37;58.10;;;21.55;;
34836;SDS011;21053;50.848;4.652;2022-12-18T17:12:04;56.67;;;19.63;;
34836;SDS011;21053;50.848;4.652;2022-12-18T17:14:32;51.45;;;21.00;;
34836;SDS011;21053;50.848;4.652;2022-12-18T17:17:02;55.47;;;20.42;;
34836;SDS011;21053;50.848;4.652;2022-12-18T17:21:57;57.97;;;22.35;;
34836;SDS011;21053;50.848;4.652;2022-12-18T17:24:26;56.45;;;21.63;;
34836;SDS011;21053;50.848;4.652;2022-12-18T17:26:54;51.78;;;21.75;;
34836;SDS011;21053;50.848;4.652;2022-12-18T17:29:21;55.47;;;21.98;;
34836;SDS011;21053;50.848;4.652;2022-12-18T17:34:17;50.83;;;21.20;;
34836;SDS011;21053;50.848;4.652;2022-12-18T17:36:44;54.55;;;21.60;;
34836;SDS011;21053;50.848;4.652;2022-12-18T17:39:10;51.92;;;21.48;;
34836;SDS011;21053;50.848;4.652;2022-12-18T17:41:41;49.42;;;20.60;;
34836;SDS011;21053;50.848;4.652;2022-12-18T17:44:08;52.22;;;20.08;;
34836;SDS011;21053;50.848;4.652;2022-12-18T17:46:36;53.45;;;20.92;;
34836;SDS011;21053;50.848;4.652;2022-12-18T17:49:02;56.70;;;21.90;;
34836;SDS011;21053;50.848;4.652;2022-12-18T17:51:28;53.45;;;21.83;;
34836;SDS011;21053;50.848;4.652;2022-12-18T17:53:57;51.45;;;20.23;;
34836;SDS011;21053;50.848;4.652;2022-12-18T17:56:25;52.85;;;20.23;;
34836;SDS011;21053;50.848;4.652;2022-12-18T17:58:50;61.08;;;22.17;;
34836;SDS011;21053;50.848;4.652;2022-12-18T18:01:18;58.13;;;21.77;;
34836;SDS011;21053;50.848;4.652;2022-12-18T18:03:49;49.97;;;21.50;;
34836;SDS011;21053;50.848;4.652;2022-12-18T18:08:45;53.90;;;21.23;;
34836;SDS011;21053;50.848;4.652;2022-12-18T18:11:12;58.35;;;21.90;;
34836;SDS011;21053;50.848;4.652;2022-12-18T18:14:01;59.72;;;22.70;;
34836;SDS011;21053;50.848;4.652;2022-12-18T18:16:38;56.95;;;23.10;;
34836;SDS011;21053;50.848;4.652;2022-12-18T18:19:06;56.03;;;21.83;;
34836;SDS011;21053;50.848;4.652;2022-12-18T18:21:33;58.75;;;21.38;;
34836;SDS011;21053;50.848;4.652;2022-12-18T18:24:03;54.10;;;22.75;;
34836;SDS011;21053;50.848;4.652;2022-12-18T18:26:30;57.70;;;22.40;;
34836;SDS011;21053;50.848;4.652;2022-12-18T18:29:24;56.97;;;21.65;;
34836;SDS011;21053;50.848;4.652;2022-12-18T18:34:24;60.33;;;23.13;;
34836;SDS011;21053;50.848;4.652;2022-12-18T18:39:46;56.50;;;22.42;;
34836;SDS011;21053;50.848;4.652;2022-12-18T18:42:11;54.25;;;23.15;;
34836;SDS011;21053;50.848;4.652;2022-12-18T18:44:38;61.65;;;22.33;;
34836;SDS011;21053;50.848;4.652;2022-12-18T18:47:05;63.13;;;24.23;;
34836;SDS011;21053;50.848;4.652;2022-12-18T18:49:31;66.78;;;23.67;;
34836;SDS011;21053;50.848;4.652;2022-12-18T18:51:59;58.45;;;22.35;;
34836;SDS011;21053;50.848;4.652;2022-12-18T18:54:26;57.67;;;23.33;;
34836;SDS011;21053;50.848;4.652;2022-12-18T18:56:52;61.13;;;23.77;;
34836;SDS011;21053;50.848;4.652;2022-12-18T18:59:19;67.22;;;23.60;;
34836;SDS011;21053;50.848;4.652;2022-12-18T19:01:45;56.92;;;23.23;;
34836;SDS011;21053;50.848;4.652;2022-12-18T19:04:13;63.80;;;23.17;;
34836;SDS011;21053;50.848;4.652;2022-12-18T19:06:41;64.15;;;24.65;;
34836;SDS011;21053;50.848;4.652;2022-12-18T19:09:10;58.45;;;22.98;;
34836;SDS011;21053;50.848;4.652;2022-12-18T19:12:55;67.15;;;24.88;;
34836;SDS011;21053;50.848;4.652;2022-12-18T19:15:39;365.42;;;97.38;;